sensor_id;sensor_type;location;lat;lon;timestamp;temperature;humidity
4643;DHT22;2334;48.710;9.622;2023-04-15T00:01:20;4.90;99.90
4643;DHT22;2334;48.710;9.622;2023-04-15T00:03:51;4.90;99.90
4643;DHT22;2334;48.710;9.622;2023-04-15T00:06:18;4.90;99.90
4643;DHT22;2334;48.710;9.622;2023-04-15T00:08:45;4.90;99.90
4643;DHT22;2334;48.710;9.622;2023-04-15T00:11:12;4.90;99.90
4643;DHT22;2334;48.710;9.622;2023-04-15T00:13:40;4.90;99.90
4643;DHT22;2334;48.710;9.622;2023-04-15T00:16:08;4.90;99.90
4643;DHT22;2334;48.710;9.622;2023-04-15T00:18:36;4.80;99.90
4643;DHT22;2334;48.710;9.622;2023-04-15T00:21:05;4.80;99.90
4643;DHT22;2334;48.710;9.622;2023-04-15T00:23:32;4.80;99.90
4643;DHT22;2334;48.710;9.622;2023-04-15T00:26:00;4.80;99.90
4643;DHT22;2334;48.710;9.622;2023-04-15T00:28:27;4.90;99.90
4643;DHT22;2334;48.710;9.622;2023-04-15T00:30:55;4.90;99.90
4643;DHT22;2334;48.710;9.622;2023-04-15T00:33:22;4.90;99.90
4643;DHT22;2334;48.710;9.622;2023-04-15T00:35:49;4.90;99.90
4643;DHT22;2334;48.710;9.622;2023-04-15T00:38:17;4.70;99.90
4643;DHT22;2334;48.710;9.622;2023-04-15T00:40:44;4.70;99.90
4643;DHT22;2334;48.710;9.622;2023-04-15T00:43:11;4.70;99.90
4643;DHT22;2334;48.710;9.622;2023-04-15T00:45:38;4.60;99.90
4643;DHT22;2334;48.710;9.622;2023-04-15T00:48:05;4.60;99.90
4643;DHT22;2334;48.710;9.622;2023-04-15T00:50:33;4.60;99.90
4643;DHT22;2334;48.710;9.622;2023-04-15T00:53:00;4.60;99.90
4643;DHT22;2334;48.710;9.622;2023-04-15T00:55:29;4.50;99.90
4643;DHT22;2334;48.710;9.622;2023-04-15T00:57:56;4.50;99.90
4643;DHT22;2334;48.710;9.622;2023-04-15T01:00:23;4.50;99.90
4643;DHT22;2334;48.710;9.622;2023-04-15T01:02:51;4.50;99.90
4643;DHT22;2334;48.710;9.622;2023-04-15T01:05:18;4.60;99.90
4643;DHT22;2334;48.710;9.622;2023-04-15T01:07:46;4.60;99.90
4643;DHT22;2334;48.710;9.622;2023-04-15T01:10:13;4.50;99.90
4643;DHT22;2334;48.710;9.622;2023-04-15T01:12:42;4.50;99.90
4643;DHT22;2334;48.710;9.622;2023-04-15T01:15:09;4.50;99.90
4643;DHT22;2334;48.710;9.622;2023-04-15T01:17:36;4.50;99.90
4643;DHT22;2334;48.710;9.622;2023-04-15T01:20:04;4.50;99.90
4643;DHT22;2334;48.710;9.622;2023-04-15T01:22:35;4.50;99.90
4643;DHT22;2334;48.710;9.622;2023-04-15T01:25:05;4.40;99.90
4643;DHT22;2334;48.710;9.622;2023-04-15T01:27:36;4.40;99.90
4643;DHT22;2334;48.710;9.622;2023-04-15T01:30:05;4.40;99.90
4643;DHT22;2334;48.710;9.622;2023-04-15T01:32:32;4.30;99.90
4643;DHT22;2334;48.710;9.622;2023-04-15T01:34:59;4.30;99.90
4643;DHT22;2334;48.710;9.622;2023-04-15T01:37:26;4.30;99.90
4643;DHT22;2334;48.710;9.622;2023-04-15T01:39:53;4.20;99.90
4643;DHT22;2334;48.710;9.622;2023-04-15T01:42:21;4.20;99.90
4643;DHT22;2334;48.710;9.622;2023-04-15T01:44:49;4.20;99.90
4643;DHT22;2334;48.710;9.622;2023-04-15T01:47:16;4.20;99.90
4643;DHT22;2334;48.710;9.622;2023-04-15T01:49:43;4.10;99.90
4643;DHT22;2334;48.710;9.622;2023-04-15T01:52:10;3.90;99.90
4643;DHT22;2334;48.710;9.622;2023-04-15T01:54:37;3.80;99.90
4643;DHT22;2334;48.710;9.622;2023-04-15T01:57:04;3.70;99.90
4643;DHT22;2334;48.710;9.622;2023-04-15T01:59:31;3.70;99.90
4643;DHT22;2334;48.710;9.622;2023-04-15T02:01:59;3.60;99.90
4643;DHT22;2334;48.710;9.622;2023-04-15T02:04:26;3.40;99.90
4643;DHT22;2334;48.710;9.622;2023-04-15T02:06:53;3.30;99.90
4643;DHT22;2334;48.710;9.622;2023-04-15T02:09:20;3.30;99.90
4643;DHT22;2334;48.710;9.622;2023-04-15T02:11:47;3.40;99.90
4643;DHT22;2334;48.710;9.622;2023-04-15T02:14:14;3.40;99.90
4643;DHT22;2334;48.710;9.622;2023-04-15T02:16:40;3.40;99.90
4643;DHT22;2334;48.710;9.622;2023-04-15T02:19:09;3.50;99.90
4643;DHT22;2334;48.710;9.622;2023-04-15T02:21:35;3.50;99.90
4643;DHT22;2334;48.710;9.622;2023-04-15T02:24:03;3.30;99.90
4643;DHT22;2334;48.710;9.622;2023-04-15T02:26:30;3.30;99.90
4643;DHT22;2334;48.710;9.622;2023-04-15T02:28:58;3.20;99.90
4643;DHT22;2334;48.710;9.622;2023-04-15T02:31:25;3.10;99.90
4643;DHT22;2334;48.710;9.622;2023-04-15T02:33:52;3.20;99.90
4643;DHT22;2334;48.710;9.622;2023-04-15T02:36:20;3.30;99.90
4643;DHT22;2334;48.710;9.622;2023-04-15T02:38:48;3.30;99.90
4643;DHT22;2334;48.710;9.622;2023-04-15T02:41:15;3.30;99.90
4643;DHT22;2334;48.710;9.622;2023-04-15T02:43:42;3.40;99.90
4643;DHT22;2334;48.710;9.622;2023-04-15T02:46:09;3.40;99.90
4643;DHT22;2334;48.710;9.622;2023-04-15T02:48:38;3.50;99.90
4643;DHT22;2334;48.710;9.622;2023-04-15T02:51:13;3.50;99.90
4643;DHT22;2334;48.710;9.622;2023-04-15T02:53:42;3.50;99.90
4643;DHT22;2334;48.710;9.622;2023-04-15T02:56:09;3.50;99.90
4643;DHT22;2334;48.710;9.622;2023-04-15T02:58:36;3.50;99.90
4643;DHT22;2334;48.710;9.622;2023-04-15T03:01:03;3.40;99.90
4643;DHT22;2334;48.710;9.622;2023-04-15T03:03:30;3.20;99.90
4643;DHT22;2334;48.710;9.622;2023-04-15T03:05:57;3.20;99.90
4643;DHT22;2334;48.710;9.622;2023-04-15T03:08:23;3.30;99.90
4643;DHT22;2334;48.710;9.622;2023-04-15T03:10:52;3.30;99.90
4643;DHT22;2334;48.710;9.622;2023-04-15T03:13:19;3.40;99.90
4643;DHT22;2334;48.710;9.622;2023-04-15T03:15:46;3.40;99.90
4643;DHT22;2334;48.710;9.622;2023-04-15T03:18:13;3.30;99.90
4643;DHT22;2334;48.710;9.622;2023-04-15T03:20:40;3.30;99.90
4643;DHT22;2334;48.710;9.622;2023-04-15T03:23:07;3.40;99.90
4643;DHT22;2334;48.710;9.622;2023-04-15T03:25:34;3.40;99.90
4643;DHT22;2334;48.710;9.622;2023-04-15T03:28:03;3.40;99.90
4643;DHT22;2334;48.710;9.622;2023-04-15T03:30:30;3.40;99.90
4643;DHT22;2334;48.710;9.622;2023-04-15T03:32:57;3.40;99.90
4643;DHT22;2334;48.710;9.622;2023-04-15T03:35:24;3.40;99.90
4643;DHT22;2334;48.710;9.622;2023-04-15T03:37:51;3.50;99.90
4643;DHT22;2334;48.710;9.622;2023-04-15T03:40:19;3.50;99.90
4643;DHT22;2334;48.710;9.622;2023-04-15T03:42:46;3.50;99.90
4643;DHT22;2334;48.710;9.622;2023-04-15T03:45:15;3.50;99.90
4643;DHT22;2334;48.710;9.622;2023-04-15T03:47:42;3.50;99.90
4643;DHT22;2334;48.710;9.622;2023-04-15T03:50:09;3.50;99.90
4643;DHT22;2334;48.710;9.622;2023-04-15T03:52:36;3.40;99.90
4643;DHT22;2334;48.710;9.622;2023-04-15T03:55:03;3.20;99.90
4643;DHT22;2334;48.710;9.622;2023-04-15T03:57:30;3.20;99.90
4643;DHT22;2334;48.710;9.622;2023-04-15T04:00:02;3.20;99.90
4643;DHT22;2334;48.710;9.622;2023-04-15T04:02:31;3.10;99.90
4643;DHT22;2334;48.710;9.622;2023-04-15T04:04:57;3.00;99.90
4643;DHT22;2334;48.710;9.622;2023-04-15T04:07:25;3.00;99.90
4643;DHT22;2334;48.710;9.622;2023-04-15T04:09:51;3.00;99.90
4643;DHT22;2334;48.710;9.622;2023-04-15T04:12:18;3.10;99.90
4643;DHT22;2334;48.710;9.622;2023-04-15T04:14:45;3.10;99.90
4643;DHT22;2334;48.710;9.622;2023-04-15T04:17:12;3.00;99.90
4643;DHT22;2334;48.710;9.622;2023-04-15T04:19:41;3.00;99.90
4643;DHT22;2334;48.710;9.622;2023-04-15T04:22:08;2.90;99.90
4643;DHT22;2334;48.710;9.622;2023-04-15T04:24:35;2.80;99.90
4643;DHT22;2334;48.710;9.622;2023-04-15T04:27:01;2.70;99.90
4643;DHT22;2334;48.710;9.622;2023-04-15T04:29:28;2.60;99.90
4643;DHT22;2334;48.710;9.622;2023-04-15T04:31:55;2.60;99.90
4643;DHT22;2334;48.710;9.622;2023-04-15T04:34:22;2.50;99.90
4643;DHT22;2334;48.710;9.622;2023-04-15T04:36:51;2.50;99.90
4643;DHT22;2334;48.710;9.622;2023-04-15T04:39:17;2.50;99.90
4643;DHT22;2334;48.710;9.622;2023-04-15T04:41:44;2.40;99.90
4643;DHT22;2334;48.710;9.622;2023-04-15T04:44:11;2.40;99.90
4643;DHT22;2334;48.710;9.622;2023-04-15T04:46:38;2.40;99.90
4643;DHT22;2334;48.710;9.622;2023-04-15T04:49:05;2.30;99.90
4643;DHT22;2334;48.710;9.622;2023-04-15T04:51:32;2.30;99.90
4643;DHT22;2334;48.710;9.622;2023-04-15T04:54:00;2.40;99.90
4643;DHT22;2334;48.710;9.622;2023-04-15T04:56:27;2.40;99.90
4643;DHT22;2334;48.710;9.622;2023-04-15T04:58:54;2.50;99.90
4643;DHT22;2334;48.710;9.622;2023-04-15T05:01:21;2.50;99.90
4643;DHT22;2334;48.710;9.622;2023-04-15T05:03:47;2.60;99.90
4643;DHT22;2334;48.710;9.622;2023-04-15T05:06:14;2.70;99.90
4643;DHT22;2334;48.710;9.622;2023-04-15T05:08:41;2.70;99.90
4643;DHT22;2334;48.710;9.622;2023-04-15T05:11:09;2.70;99.90
4643;DHT22;2334;48.710;9.622;2023-04-15T05:13:36;2.60;99.90
4643;DHT22;2334;48.710;9.622;2023-04-15T05:16:04;2.60;99.90
4643;DHT22;2334;48.710;9.622;2023-04-15T05:18:31;2.60;99.90
4643;DHT22;2334;48.710;9.622;2023-04-15T05:20:58;2.70;99.90
4643;DHT22;2334;48.710;9.622;2023-04-15T05:23:25;2.60;99.90
4643;DHT22;2334;48.710;9.622;2023-04-15T05:25:52;2.60;99.90
4643;DHT22;2334;48.710;9.622;2023-04-15T05:28:20;2.70;99.90
4643;DHT22;2334;48.710;9.622;2023-04-15T05:30:47;2.70;99.90
4643;DHT22;2334;48.710;9.622;2023-04-15T05:33:14;2.70;99.90
4643;DHT22;2334;48.710;9.622;2023-04-15T05:35:40;2.70;99.90
4643;DHT22;2334;48.710;9.622;2023-04-15T05:38:07;2.60;99.90
4643;DHT22;2334;48.710;9.622;2023-04-15T05:40:34;2.60;99.90
4643;DHT22;2334;48.710;9.622;2023-04-15T05:43:01;2.60;99.90
4643;DHT22;2334;48.710;9.622;2023-04-15T05:45:29;2.60;99.90
4643;DHT22;2334;48.710;9.622;2023-04-15T05:47:56;2.60;99.90
4643;DHT22;2334;48.710;9.622;2023-04-15T05:50:23;2.70;99.90
4643;DHT22;2334;48.710;9.622;2023-04-15T05:52:50;2.80;99.90
4643;DHT22;2334;48.710;9.622;2023-04-15T05:55:17;2.80;99.90
4643;DHT22;2334;48.710;9.622;2023-04-15T05:57:44;2.80;99.90
4643;DHT22;2334;48.710;9.622;2023-04-15T06:00:11;2.90;99.90
4643;DHT22;2334;48.710;9.622;2023-04-15T06:02:40;3.10;99.90
4643;DHT22;2334;48.710;9.622;2023-04-15T06:05:08;3.20;99.90
4643;DHT22;2334;48.710;9.622;2023-04-15T06:07:36;3.40;99.90
4643;DHT22;2334;48.710;9.622;2023-04-15T06:10:04;3.50;99.90
4643;DHT22;2334;48.710;9.622;2023-04-15T06:12:31;3.60;99.90
4643;DHT22;2334;48.710;9.622;2023-04-15T06:14:58;3.80;99.90
4643;DHT22;2334;48.710;9.622;2023-04-15T06:17:25;3.90;99.90
4643;DHT22;2334;48.710;9.622;2023-04-15T06:19:54;4.00;99.90
4643;DHT22;2334;48.710;9.622;2023-04-15T06:22:21;4.20;99.90
4643;DHT22;2334;48.710;9.622;2023-04-15T06:24:48;4.40;99.90
4643;DHT22;2334;48.710;9.622;2023-04-15T06:27:16;4.50;99.90
4643;DHT22;2334;48.710;9.622;2023-04-15T06:29:43;4.70;99.90
4643;DHT22;2334;48.710;9.622;2023-04-15T06:32:10;5.10;99.90
4643;DHT22;2334;48.710;9.622;2023-04-15T06:34:37;5.30;99.90
4643;DHT22;2334;48.710;9.622;2023-04-15T06:37:05;5.50;99.90
4643;DHT22;2334;48.710;9.622;2023-04-15T06:39:34;5.50;99.90
4643;DHT22;2334;48.710;9.622;2023-04-15T06:42:02;5.40;99.90
4643;DHT22;2334;48.710;9.622;2023-04-15T06:44:29;5.30;99.90
4643;DHT22;2334;48.710;9.622;2023-04-15T06:46:56;5.30;99.90
4643;DHT22;2334;48.710;9.622;2023-04-15T06:49:23;5.40;99.90
4643;DHT22;2334;48.710;9.622;2023-04-15T06:51:49;5.50;99.90
4643;DHT22;2334;48.710;9.622;2023-04-15T06:54:18;5.40;99.90
4643;DHT22;2334;48.710;9.622;2023-04-15T06:56:45;5.10;99.90
4643;DHT22;2334;48.710;9.622;2023-04-15T06:59:13;5.20;99.90
4643;DHT22;2334;48.710;9.622;2023-04-15T07:01:40;5.30;99.90
4643;DHT22;2334;48.710;9.622;2023-04-15T07:04:06;5.40;99.90
4643;DHT22;2334;48.710;9.622;2023-04-15T07:06:33;5.60;99.90
4643;DHT22;2334;48.710;9.622;2023-04-15T07:09:01;5.60;99.90
4643;DHT22;2334;48.710;9.622;2023-04-15T07:11:30;5.70;99.90
4643;DHT22;2334;48.710;9.622;2023-04-15T07:13:57;5.70;99.90
4643;DHT22;2334;48.710;9.622;2023-04-15T07:16:24;5.70;99.90
4643;DHT22;2334;48.710;9.622;2023-04-15T07:18:51;5.90;99.90
4643;DHT22;2334;48.710;9.622;2023-04-15T07:21:18;6.00;99.90
4643;DHT22;2334;48.710;9.622;2023-04-15T07:23:45;6.20;99.90
4643;DHT22;2334;48.710;9.622;2023-04-15T07:26:12;6.60;99.90
4643;DHT22;2334;48.710;9.622;2023-04-15T07:28:40;6.90;99.90
4643;DHT22;2334;48.710;9.622;2023-04-15T07:31:07;7.10;99.90
4643;DHT22;2334;48.710;9.622;2023-04-15T07:33:34;6.90;99.90
4643;DHT22;2334;48.710;9.622;2023-04-15T07:36:01;7.10;99.90
4643;DHT22;2334;48.710;9.622;2023-04-15T07:38:28;7.30;99.90
4643;DHT22;2334;48.710;9.622;2023-04-15T07:40:55;7.40;99.90
4643;DHT22;2334;48.710;9.622;2023-04-15T07:43:22;7.50;99.90
4643;DHT22;2334;48.710;9.622;2023-04-15T07:45:50;7.50;99.90
4643;DHT22;2334;48.710;9.622;2023-04-15T07:48:17;7.70;99.90
4643;DHT22;2334;48.710;9.622;2023-04-15T07:50:44;7.70;99.90
4643;DHT22;2334;48.710;9.622;2023-04-15T07:53:11;7.80;99.90
4643;DHT22;2334;48.710;9.622;2023-04-15T07:55:41;7.90;99.90
4643;DHT22;2334;48.710;9.622;2023-04-15T07:58:08;8.10;99.90
4643;DHT22;2334;48.710;9.622;2023-04-15T08:00:36;8.30;99.90
4643;DHT22;2334;48.710;9.622;2023-04-15T08:03:04;8.70;99.90
4643;DHT22;2334;48.710;9.622;2023-04-15T08:05:32;9.00;99.90
4643;DHT22;2334;48.710;9.622;2023-04-15T08:07:59;9.30;99.90
4643;DHT22;2334;48.710;9.622;2023-04-15T08:10:25;9.30;99.90
4643;DHT22;2334;48.710;9.622;2023-04-15T08:12:53;9.40;99.90
4643;DHT22;2334;48.710;9.622;2023-04-15T08:15:21;9.60;99.90
4643;DHT22;2334;48.710;9.622;2023-04-15T08:17:48;9.50;99.90
4643;DHT22;2334;48.710;9.622;2023-04-15T08:20:16;9.20;99.90
4643;DHT22;2334;48.710;9.622;2023-04-15T08:22:43;9.30;99.90
4643;DHT22;2334;48.710;9.622;2023-04-15T08:25:10;9.50;99.90
4643;DHT22;2334;48.710;9.622;2023-04-15T08:27:37;9.70;99.90
4643;DHT22;2334;48.710;9.622;2023-04-15T08:30:05;9.80;99.90
4643;DHT22;2334;48.710;9.622;2023-04-15T08:32:33;10.00;99.90
4643;DHT22;2334;48.710;9.622;2023-04-15T08:34:59;10.10;99.90
4643;DHT22;2334;48.710;9.622;2023-04-15T08:37:28;10.40;99.90
4643;DHT22;2334;48.710;9.622;2023-04-15T08:39:55;10.80;99.90
4643;DHT22;2334;48.710;9.622;2023-04-15T08:42:26;11.00;99.90
4643;DHT22;2334;48.710;9.622;2023-04-15T08:44:54;11.10;99.90
4643;DHT22;2334;48.710;9.622;2023-04-15T08:47:23;10.70;99.90
4643;DHT22;2334;48.710;9.622;2023-04-15T08:49:54;10.70;99.90
4643;DHT22;2334;48.710;9.622;2023-04-15T08:52:24;11.00;99.90
4643;DHT22;2334;48.710;9.622;2023-04-15T08:54:56;11.40;99.90
4643;DHT22;2334;48.710;9.622;2023-04-15T08:57:24;11.60;99.90
4643;DHT22;2334;48.710;9.622;2023-04-15T08:59:52;11.40;99.90
4643;DHT22;2334;48.710;9.622;2023-04-15T09:02:19;11.30;99.90
4643;DHT22;2334;48.710;9.622;2023-04-15T09:04:46;11.80;99.90
4643;DHT22;2334;48.710;9.622;2023-04-15T09:07:13;12.40;99.90
4643;DHT22;2334;48.710;9.622;2023-04-15T09:09:40;12.50;99.90
4643;DHT22;2334;48.710;9.622;2023-04-15T09:12:11;12.20;99.90
4643;DHT22;2334;48.710;9.622;2023-04-15T09:14:39;12.20;99.90
4643;DHT22;2334;48.710;9.622;2023-04-15T09:17:09;12.00;99.90
4643;DHT22;2334;48.710;9.622;2023-04-15T09:19:37;12.00;99.90
4643;DHT22;2334;48.710;9.622;2023-04-15T09:22:04;12.10;99.90
4643;DHT22;2334;48.710;9.622;2023-04-15T09:24:36;12.10;99.90
4643;DHT22;2334;48.710;9.622;2023-04-15T09:27:04;12.20;99.90
4643;DHT22;2334;48.710;9.622;2023-04-15T09:29:32;12.40;99.90
4643;DHT22;2334;48.710;9.622;2023-04-15T09:32:09;12.60;99.90
4643;DHT22;2334;48.710;9.622;2023-04-15T09:34:36;12.60;99.90
4643;DHT22;2334;48.710;9.622;2023-04-15T09:37:03;13.00;99.90
4643;DHT22;2334;48.710;9.622;2023-04-15T09:39:45;13.20;99.90
4643;DHT22;2334;48.710;9.622;2023-04-15T09:42:13;13.20;99.90
4643;DHT22;2334;48.710;9.622;2023-04-15T09:44:41;13.30;99.90
4643;DHT22;2334;48.710;9.622;2023-04-15T09:47:08;13.40;99.90
4643;DHT22;2334;48.710;9.622;2023-04-15T09:49:35;13.20;99.90
4643;DHT22;2334;48.710;9.622;2023-04-15T09:52:02;13.30;99.90
4643;DHT22;2334;48.710;9.622;2023-04-15T09:54:33;13.30;99.90
4643;DHT22;2334;48.710;9.622;2023-04-15T09:57:05;13.30;99.90
4643;DHT22;2334;48.710;9.622;2023-04-15T09:59:32;13.80;99.90
4643;DHT22;2334;48.710;9.622;2023-04-15T10:02:02;14.00;99.90
4643;DHT22;2334;48.710;9.622;2023-04-15T10:04:30;14.20;99.90
4643;DHT22;2334;48.710;9.622;2023-04-15T10:07:00;14.30;99.90
4643;DHT22;2334;48.710;9.622;2023-04-15T10:09:28;14.30;99.90
4643;DHT22;2334;48.710;9.622;2023-04-15T10:11:56;14.10;99.90
4643;DHT22;2334;48.710;9.622;2023-04-15T10:14:27;14.10;99.90
4643;DHT22;2334;48.710;9.622;2023-04-15T10:16:57;14.00;99.90
4643;DHT22;2334;48.710;9.622;2023-04-15T10:19:30;13.90;99.90
4643;DHT22;2334;48.710;9.622;2023-04-15T10:21:59;14.00;99.90
4643;DHT22;2334;48.710;9.622;2023-04-15T10:24:27;14.10;99.90
4643;DHT22;2334;48.710;9.622;2023-04-15T10:26:54;14.10;99.90
4643;DHT22;2334;48.710;9.622;2023-04-15T10:29:23;14.20;99.90
4643;DHT22;2334;48.710;9.622;2023-04-15T10:31:52;14.30;99.90
4643;DHT22;2334;48.710;9.622;2023-04-15T10:34:20;14.20;99.90
4643;DHT22;2334;48.710;9.622;2023-04-15T10:36:50;14.20;99.90
4643;DHT22;2334;48.710;9.622;2023-04-15T10:39:39;14.10;99.90
4643;DHT22;2334;48.710;9.622;2023-04-15T10:42:08;14.30;99.90
4643;DHT22;2334;48.710;9.622;2023-04-15T10:44:37;14.50;99.90
4643;DHT22;2334;48.710;9.622;2023-04-15T10:47:09;14.60;99.90
4643;DHT22;2334;48.710;9.622;2023-04-15T10:49:43;14.60;99.90
4643;DHT22;2334;48.710;9.622;2023-04-15T10:52:13;14.70;99.90
4643;DHT22;2334;48.710;9.622;2023-04-15T10:54:42;14.80;99.90
4643;DHT22;2334;48.710;9.622;2023-04-15T10:57:14;14.60;99.90
4643;DHT22;2334;48.710;9.622;2023-04-15T11:00:09;14.60;99.90
4643;DHT22;2334;48.710;9.622;2023-04-15T11:02:42;14.50;99.90
4643;DHT22;2334;48.710;9.622;2023-04-15T11:05:10;14.60;99.90
4643;DHT22;2334;48.710;9.622;2023-04-15T11:07:40;14.60;99.90
4643;DHT22;2334;48.710;9.622;2023-04-15T11:13:17;14.80;99.90
4643;DHT22;2334;48.710;9.622;2023-04-15T11:15:47;14.70;99.90
4643;DHT22;2334;48.710;9.622;2023-04-15T11:18:16;14.50;99.90
4643;DHT22;2334;48.710;9.622;2023-04-15T11:20:44;14.30;99.90
4643;DHT22;2334;48.710;9.622;2023-04-15T11:23:14;14.20;99.90
4643;DHT22;2334;48.710;9.622;2023-04-15T11:25:42;14.00;99.90
4643;DHT22;2334;48.710;9.622;2023-04-15T11:28:09;13.90;99.90
4643;DHT22;2334;48.710;9.622;2023-04-15T11:30:37;13.90;99.90
4643;DHT22;2334;48.710;9.622;2023-04-15T11:33:06;14.00;99.90
4643;DHT22;2334;48.710;9.622;2023-04-15T11:35:33;14.10;99.90
4643;DHT22;2334;48.710;9.622;2023-04-15T11:38:02;14.00;99.90
4643;DHT22;2334;48.710;9.622;2023-04-15T11:40:31;14.20;99.90
4643;DHT22;2334;48.710;9.622;2023-04-15T11:43:07;14.10;99.90
4643;DHT22;2334;48.710;9.622;2023-04-15T11:45:34;14.20;99.90
4643;DHT22;2334;48.710;9.622;2023-04-15T11:48:06;14.30;99.90
4643;DHT22;2334;48.710;9.622;2023-04-15T11:50:34;14.10;99.90
4643;DHT22;2334;48.710;9.622;2023-04-15T11:53:02;14.20;99.90
4643;DHT22;2334;48.710;9.622;2023-04-15T11:55:40;14.50;99.90
4643;DHT22;2334;48.710;9.622;2023-04-15T11:58:09;14.60;99.90
4643;DHT22;2334;48.710;9.622;2023-04-15T12:00:38;14.60;99.90
4643;DHT22;2334;48.710;9.622;2023-04-15T12:03:12;14.70;99.90
4643;DHT22;2334;48.710;9.622;2023-04-15T12:06:03;14.70;99.90
4643;DHT22;2334;48.710;9.622;2023-04-15T12:08:49;14.70;99.90
4643;DHT22;2334;48.710;9.622;2023-04-15T12:11:18;14.50;99.90
4643;DHT22;2334;48.710;9.622;2023-04-15T12:13:46;14.40;99.90
4643;DHT22;2334;48.710;9.622;2023-04-15T12:16:16;14.40;99.90
4643;DHT22;2334;48.710;9.622;2023-04-15T12:18:44;14.20;99.90
4643;DHT22;2334;48.710;9.622;2023-04-15T12:21:12;13.90;99.90
4643;DHT22;2334;48.710;9.622;2023-04-15T12:23:46;13.80;99.90
4643;DHT22;2334;48.710;9.622;2023-04-15T12:26:14;13.90;99.90
4643;DHT22;2334;48.710;9.622;2023-04-15T12:28:43;13.90;99.90
4643;DHT22;2334;48.710;9.622;2023-04-15T12:31:10;13.60;99.90
4643;DHT22;2334;48.710;9.622;2023-04-15T12:33:37;13.60;99.90
4643;DHT22;2334;48.710;9.622;2023-04-15T12:36:05;13.60;99.90
4643;DHT22;2334;48.710;9.622;2023-04-15T12:38:32;13.60;99.90
4643;DHT22;2334;48.710;9.622;2023-04-15T12:40:59;13.50;99.90
4643;DHT22;2334;48.710;9.622;2023-04-15T12:43:26;13.40;99.90
4643;DHT22;2334;48.710;9.622;2023-04-15T12:45:54;13.10;99.90
4643;DHT22;2334;48.710;9.622;2023-04-15T12:48:23;13.20;99.90
4643;DHT22;2334;48.710;9.622;2023-04-15T12:50:50;13.10;99.90
4643;DHT22;2334;48.710;9.622;2023-04-15T12:53:17;13.10;99.90
4643;DHT22;2334;48.710;9.622;2023-04-15T12:55:44;12.90;99.90
4643;DHT22;2334;48.710;9.622;2023-04-15T12:58:11;12.60;99.90
4643;DHT22;2334;48.710;9.622;2023-04-15T13:00:38;12.40;99.90
4643;DHT22;2334;48.710;9.622;2023-04-15T13:03:06;12.40;99.90
4643;DHT22;2334;48.710;9.622;2023-04-15T13:05:33;12.40;99.90
4643;DHT22;2334;48.710;9.622;2023-04-15T13:08:01;12.50;99.90
4643;DHT22;2334;48.710;9.622;2023-04-15T13:10:28;12.50;99.90
4643;DHT22;2334;48.710;9.622;2023-04-15T13:12:56;12.50;99.90
4643;DHT22;2334;48.710;9.622;2023-04-15T13:15:22;12.30;99.90
4643;DHT22;2334;48.710;9.622;2023-04-15T13:17:50;12.20;99.90
4643;DHT22;2334;48.710;9.622;2023-04-15T13:20:19;12.10;99.90
4643;DHT22;2334;48.710;9.622;2023-04-15T13:22:46;12.10;99.90
4643;DHT22;2334;48.710;9.622;2023-04-15T13:25:13;12.00;99.90
4643;DHT22;2334;48.710;9.622;2023-04-15T13:27:40;11.90;99.90
4643;DHT22;2334;48.710;9.622;2023-04-15T13:30:08;11.80;99.90
4643;DHT22;2334;48.710;9.622;2023-04-15T13:32:35;11.60;99.90
4643;DHT22;2334;48.710;9.622;2023-04-15T13:35:01;11.50;99.90
4643;DHT22;2334;48.710;9.622;2023-04-15T13:37:31;11.40;99.90
4643;DHT22;2334;48.710;9.622;2023-04-15T13:39:57;11.20;99.90
4643;DHT22;2334;48.710;9.622;2023-04-15T13:42:25;11.10;99.90
4643;DHT22;2334;48.710;9.622;2023-04-15T13:44:52;11.00;99.90
4643;DHT22;2334;48.710;9.622;2023-04-15T13:47:19;10.90;99.90
4643;DHT22;2334;48.710;9.622;2023-04-15T13:49:46;10.90;99.90
4643;DHT22;2334;48.710;9.622;2023-04-15T13:52:13;11.00;99.90
4643;DHT22;2334;48.710;9.622;2023-04-15T13:54:41;11.10;99.90
4643;DHT22;2334;48.710;9.622;2023-04-15T13:57:08;11.10;99.90
4643;DHT22;2334;48.710;9.622;2023-04-15T13:59:35;11.20;99.90
4643;DHT22;2334;48.710;9.622;2023-04-15T14:02:02;11.20;99.90
4643;DHT22;2334;48.710;9.622;2023-04-15T14:04:29;11.10;99.90
4643;DHT22;2334;48.710;9.622;2023-04-15T14:06:56;11.20;99.90
4643;DHT22;2334;48.710;9.622;2023-04-15T14:09:23;11.10;99.90
4643;DHT22;2334;48.710;9.622;2023-04-15T14:11:52;11.10;99.90
4643;DHT22;2334;48.710;9.622;2023-04-15T14:14:19;11.10;99.90
4643;DHT22;2334;48.710;9.622;2023-04-15T14:16:46;11.10;99.90
4643;DHT22;2334;48.710;9.622;2023-04-15T14:19:13;11.10;99.90
4643;DHT22;2334;48.710;9.622;2023-04-15T14:21:40;11.10;99.90
4643;DHT22;2334;48.710;9.622;2023-04-15T14:24:07;11.20;99.90
4643;DHT22;2334;48.710;9.622;2023-04-15T14:26:34;11.30;99.90
4643;DHT22;2334;48.710;9.622;2023-04-15T14:29:02;11.40;99.90
4643;DHT22;2334;48.710;9.622;2023-04-15T14:31:29;11.60;99.90
4643;DHT22;2334;48.710;9.622;2023-04-15T14:33:56;11.70;99.90
4643;DHT22;2334;48.710;9.622;2023-04-15T14:36:23;11.80;99.90
4643;DHT22;2334;48.710;9.622;2023-04-15T14:38:50;11.90;99.90
4643;DHT22;2334;48.710;9.622;2023-04-15T14:41:17;11.80;99.90
4643;DHT22;2334;48.710;9.622;2023-04-15T14:43:44;11.80;99.90
4643;DHT22;2334;48.710;9.622;2023-04-15T14:46:13;11.90;99.90
4643;DHT22;2334;48.710;9.622;2023-04-15T14:48:40;11.80;99.90
4643;DHT22;2334;48.710;9.622;2023-04-15T14:51:07;11.70;99.90
4643;DHT22;2334;48.710;9.622;2023-04-15T14:53:34;11.70;99.90
4643;DHT22;2334;48.710;9.622;2023-04-15T14:56:01;11.70;99.90
4643;DHT22;2334;48.710;9.622;2023-04-15T14:58:28;11.60;99.90
4643;DHT22;2334;48.710;9.622;2023-04-15T15:00:54;11.70;99.90
4643;DHT22;2334;48.710;9.622;2023-04-15T15:03:23;11.60;99.90
4643;DHT22;2334;48.710;9.622;2023-04-15T15:05:50;11.60;99.90
4643;DHT22;2334;48.710;9.622;2023-04-15T15:08:17;11.60;99.90
4643;DHT22;2334;48.710;9.622;2023-04-15T15:10:43;11.50;99.90
4643;DHT22;2334;48.710;9.622;2023-04-15T15:13:10;11.50;99.90
4643;DHT22;2334;48.710;9.622;2023-04-15T15:15:37;11.50;99.90
4643;DHT22;2334;48.710;9.622;2023-04-15T15:18:05;11.40;99.90
4643;DHT22;2334;48.710;9.622;2023-04-15T15:20:33;11.30;99.90
4643;DHT22;2334;48.710;9.622;2023-04-15T15:23:00;11.30;99.90
4643;DHT22;2334;48.710;9.622;2023-04-15T15:25:28;11.20;99.90
4643;DHT22;2334;48.710;9.622;2023-04-15T15:27:55;11.20;99.90
4643;DHT22;2334;48.710;9.622;2023-04-15T15:30:22;11.20;99.90
4643;DHT22;2334;48.710;9.622;2023-04-15T15:32:50;11.20;99.90
4643;DHT22;2334;48.710;9.622;2023-04-15T15:35:17;11.20;99.90
4643;DHT22;2334;48.710;9.622;2023-04-15T15:37:45;11.20;99.90
4643;DHT22;2334;48.710;9.622;2023-04-15T15:40:13;11.20;99.90
4643;DHT22;2334;48.710;9.622;2023-04-15T15:42:40;11.20;99.90
4643;DHT22;2334;48.710;9.622;2023-04-15T15:45:08;11.10;99.90
4643;DHT22;2334;48.710;9.622;2023-04-15T15:47:35;11.10;99.90
4643;DHT22;2334;48.710;9.622;2023-04-15T15:50:01;11.10;99.90
4643;DHT22;2334;48.710;9.622;2023-04-15T15:52:28;11.20;99.90
4643;DHT22;2334;48.710;9.622;2023-04-15T15:54:57;11.20;99.90
4643;DHT22;2334;48.710;9.622;2023-04-15T15:57:23;11.10;99.90
4643;DHT22;2334;48.710;9.622;2023-04-15T15:59:50;11.10;99.90
4643;DHT22;2334;48.710;9.622;2023-04-15T16:02:17;11.10;99.90
4643;DHT22;2334;48.710;9.622;2023-04-15T16:04:45;11.10;99.90
4643;DHT22;2334;48.710;9.622;2023-04-15T16:07:12;11.10;99.90
4643;DHT22;2334;48.710;9.622;2023-04-15T16:09:40;11.00;99.90
4643;DHT22;2334;48.710;9.622;2023-04-15T16:12:08;10.90;99.90
4643;DHT22;2334;48.710;9.622;2023-04-15T16:14:35;10.90;99.90
4643;DHT22;2334;48.710;9.622;2023-04-15T16:17:02;10.80;99.90